<?xml version="1.0" encoding="UTF-8" standalone="no" ?>
<gpx xmlns="http://www.topografix.com/GPX/1/1" xmlns:xsi="http://www.w3.org/2001/XMLSchema-instance" xsi:schemaLocation="http://www.topografix.com/GPX/1/1 http://www.topografix.com/GPX/1/1/gpx.xsd" version="1.1" creator="VisuGPX - https://www.visugpx.com">
  <metadata>
    <name>cabane de nave</name>
    <desc><![CDATA[Rando a mettre sous reserve en cas de mauvais temps]]></desc>
  </metadata>
  <trk>
    <name><![CDATA[Cabanne de Nave]]></name>
    <extensions>
      <line xmlns="http://www.topografix.com/GPX/gpx_style/0/2">
        <color>ff0000</color>
        <opacity>1.0</opacity>
        <width>2.0</width>
      </line>
    </extensions>
    <trkseg>
      <trkpt lat="45.18733" lon="5.53542">
        <ele>1121</ele>
        <time>2008-06-06T08:12:43Z</time>
      </trkpt>
      <trkpt lat="45.18785" lon="5.53533">
        <ele>1119</ele>
        <time>2008-06-06T08:15:16Z</time>
      </trkpt>
      <trkpt lat="45.18805" lon="5.53485">
        <ele>1120</ele>
        <time>2008-06-06T08:16:55Z</time>
      </trkpt>
      <trkpt lat="45.18882" lon="5.53455">
        <ele>1120</ele>
        <time>2008-06-06T08:17:12Z</time>
      </trkpt>
      <trkpt lat="45.19027" lon="5.5353">
        <ele>1134</ele>
        <time>2008-06-06T08:21:59Z</time>
      </trkpt>
      <trkpt lat="45.19058" lon="5.53612">
        <ele>1134</ele>
        <time>2008-06-06T08:23:29Z</time>
      </trkpt>
      <trkpt lat="45.19093" lon="5.53655">
        <ele>1167</ele>
        <time>2008-06-06T08:24:32Z</time>
      </trkpt>
      <trkpt lat="45.19153" lon="5.53647">
        <ele>1172</ele>
        <time>2008-06-06T08:25:55Z</time>
      </trkpt>
      <trkpt lat="45.19222" lon="5.53665">
        <ele>1182</ele>
        <time>2008-06-06T08:27:35Z</time>
      </trkpt>
      <trkpt lat="45.19322" lon="5.5368">
        <ele>1179</ele>
        <time>2008-06-06T08:29:56Z</time>
      </trkpt>
      <trkpt lat="45.19387" lon="5.53675">
        <ele>1179</ele>
        <time>2008-06-06T08:30:24Z</time>
      </trkpt>
      <trkpt lat="45.19453" lon="5.53697">
        <ele>1238</ele>
        <time>2008-06-06T08:31:23Z</time>
      </trkpt>
      <trkpt lat="45.19512" lon="5.5369">
        <ele>1207</ele>
        <time>2008-06-06T08:34:41Z</time>
      </trkpt>
      <trkpt lat="45.1959" lon="5.53658">
        <ele>1207</ele>
        <time>2008-06-06T08:36:17Z</time>
      </trkpt>
      <trkpt lat="45.19682" lon="5.53697">
        <ele>1205</ele>
        <time>2008-06-06T08:38:04Z</time>
      </trkpt>
      <trkpt lat="45.19732" lon="5.53725">
        <ele>1204</ele>
        <time>2008-06-06T08:39:13Z</time>
      </trkpt>
      <trkpt lat="45.19843" lon="5.53712">
        <ele>1218</ele>
        <time>2008-06-06T08:41:29Z</time>
      </trkpt>
      <trkpt lat="45.19877" lon="5.53707">
        <ele>1215</ele>
        <time>2008-06-06T08:44:11Z</time>
      </trkpt>
      <trkpt lat="45.19955" lon="5.53717">
        <ele>1231</ele>
        <time>2008-06-06T08:47:07Z</time>
      </trkpt>
      <trkpt lat="45.20008" lon="5.5371">
        <ele>1245</ele>
        <time>2008-06-06T08:48:11Z</time>
      </trkpt>
      <trkpt lat="45.2007" lon="5.53762">
        <ele>1247</ele>
        <time>2008-06-06T08:49:55Z</time>
      </trkpt>
      <trkpt lat="45.2013" lon="5.53797">
        <ele>1245</ele>
        <time>2008-06-06T08:51:16Z</time>
      </trkpt>
      <trkpt lat="45.20177" lon="5.53788">
        <ele>1259</ele>
        <time>2008-06-06T08:52:09Z</time>
      </trkpt>
      <trkpt lat="45.2025" lon="5.53798">
        <ele>1260</ele>
        <time>2008-06-06T08:53:19Z</time>
      </trkpt>
      <trkpt lat="45.20303" lon="5.53818">
        <ele>1272</ele>
        <time>2008-06-06T08:55:13Z</time>
      </trkpt>
      <trkpt lat="45.20622" lon="5.53913">
        <ele>1345</ele>
        <time>2008-06-06T09:09:52Z</time>
      </trkpt>
      <trkpt lat="45.20683" lon="5.53902">
        <ele>1349</ele>
        <time>2008-06-06T09:10:53Z</time>
      </trkpt>
      <trkpt lat="45.20768" lon="5.53937">
        <ele>1348</ele>
        <time>2008-06-06T09:12:41Z</time>
      </trkpt>
      <trkpt lat="45.2086" lon="5.5397">
        <ele>1356</ele>
        <time>2008-06-06T09:14:17Z</time>
      </trkpt>
      <trkpt lat="45.20968" lon="5.53982">
        <ele>1366</ele>
        <time>2008-06-06T09:16:07Z</time>
      </trkpt>
      <trkpt lat="45.21033" lon="5.53992">
        <ele>1369</ele>
        <time>2008-06-06T09:17:27Z</time>
      </trkpt>
      <trkpt lat="45.21112" lon="5.53978">
        <ele>1394</ele>
        <time>2008-06-06T09:19:03Z</time>
      </trkpt>
      <trkpt lat="45.21168" lon="5.54003">
        <ele>1387</ele>
        <time>2008-06-06T09:20:22Z</time>
      </trkpt>
      <trkpt lat="45.21228" lon="5.54">
        <ele>1389</ele>
        <time>2008-06-06T09:21:35Z</time>
      </trkpt>
      <trkpt lat="45.21293" lon="5.54017">
        <ele>1409</ele>
        <time>2008-06-06T09:22:59Z</time>
      </trkpt>
      <trkpt lat="45.21335" lon="5.54042">
        <ele>1414</ele>
        <time>2008-06-06T09:25:42Z</time>
      </trkpt>
      <trkpt lat="45.21408" lon="5.54058">
        <ele>1408</ele>
        <time>2008-06-06T09:27:50Z</time>
      </trkpt>
      <trkpt lat="45.21542" lon="5.54075">
        <ele>1423</ele>
        <time>2008-06-06T09:31:41Z</time>
      </trkpt>
      <trkpt lat="45.21587" lon="5.54073">
        <ele>1417</ele>
        <time>2008-06-06T09:32:58Z</time>
      </trkpt>
      <trkpt lat="45.21645" lon="5.54095">
        <ele>1433</ele>
        <time>2008-06-06T09:34:31Z</time>
      </trkpt>
      <trkpt lat="45.21687" lon="5.54072">
        <ele>1441</ele>
        <time>2008-06-06T09:35:35Z</time>
      </trkpt>
      <trkpt lat="45.21742" lon="5.5405">
        <ele>1456</ele>
        <time>2008-06-06T09:37:32Z</time>
      </trkpt>
      <trkpt lat="45.2178" lon="5.54072">
        <ele>1456</ele>
        <time>2008-06-06T09:38:20Z</time>
      </trkpt>
      <trkpt lat="45.21848" lon="5.54033">
        <ele>1459</ele>
        <time>2008-06-06T09:40:42Z</time>
      </trkpt>
      <trkpt lat="45.2191" lon="5.54062">
        <ele>1465</ele>
        <time>2008-06-06T09:42:14Z</time>
      </trkpt>
      <trkpt lat="45.21963" lon="5.54067">
        <ele>1478</ele>
        <time>2008-06-06T09:43:11Z</time>
      </trkpt>
      <trkpt lat="45.22043" lon="5.54077">
        <ele>1495</ele>
        <time>2008-06-06T09:44:43Z</time>
      </trkpt>
      <trkpt lat="45.22145" lon="5.5407">
        <ele>1496</ele>
        <time>2008-06-06T09:46:56Z</time>
      </trkpt>
      <trkpt lat="45.22153" lon="5.54">
        <ele>1494</ele>
        <time>2008-06-06T09:48:04Z</time>
      </trkpt>
      <trkpt lat="45.22165" lon="5.53962">
        <ele>1496</ele>
        <time>2008-06-06T09:48:48Z</time>
      </trkpt>
    </trkseg>
  </trk>
</gpx>